Sign in

Advertise on goboko.com

You can reach many thousands of active pilots each month by advertising on goboko.com.

Please contact us for details.

Advertising

Info

Aviation weather - KJYO

METAR KJYO 292235Z AUTO 15004KT 10SM OVC050 00/M01 A3006 RMK AO2

TAF KIAD 281730Z 2818/2924 32012G22KT P6SM SKC FM282300 32005KT P6SM SKC FM291400 14005KT P6SM SCT080 OVC120 FM291700 16009KT P6SM SCT060 OVC090 FM292200 17010KT 3SM -RASN SCT035 OVC060

ADDS Experimental. Do not use for flight-related decisions.

Javascript required. Ce site nécessite javascript